Lum, Michigan
Current Conditions -  °F | °C
As of 12:33 PM on Saturday 25 Oct 2014 (Local Time) from KD95 Reporting Station
Overcast Overcast  
Wind Chill: 60°   Ceiling: 2000
Heat Index: 60°   Visibility: 10mi
Dew Point: 49°   Wind: 14mph
Humidity: 69%   Direction: 290°WNW
Pressure: 29.77"   Gusts: 23mph
Location:  43.0581°N, 83.167°W
Report Text: KD95 251633Z AUTO 29012G20KT 10SM BKN020 OVC026 15/10 A2977 RMK AO2 T01530096
Loading
Personal Weather Stations






























Interactive Weather Map New forecast layout! Learn more

10-Day Weather Forecast

Advertisements
Track Severe Weather on mobile